createdAt,value
2018-01-15T00:00:19.720Z,22.30
2018-01-15T00:02:47.988Z,22.83
2018-01-15T00:05:16.196Z,21.55
2018-01-15T00:07:44.353Z,20.58
2018-01-15T00:10:12.500Z,22.50
2018-01-15T00:12:41.389Z,17.98
2018-01-15T00:15:10.285Z,20.77
2018-01-15T00:17:39.201Z,19.90
2018-01-15T00:20:07.344Z,20.80
2018-01-15T00:22:36.243Z,22.90
2018-01-15T00:25:05.169Z,21.15
2018-01-15T00:27:33.320Z,15.77
2018-01-15T00:30:01.608Z,18.12
2018-01-15T00:32:29.748Z,24.08
2018-01-15T00:34:58.695Z,20.77
2018-01-15T00:37:26.819Z,17.40
2018-01-15T00:39:55.737Z,21.65
2018-01-15T00:42:23.880Z,20.75
2018-01-15T00:44:52.911Z,17.37
2018-01-15T00:47:21.061Z,20.05
2018-01-15T00:49:55.703Z,16.80
2018-01-15T00:52:23.848Z,16.92
2018-01-15T00:54:52.875Z,19.23
2018-01-15T00:57:21.089Z,19.35
2018-01-15T00:59:49.229Z,18.05
2018-01-15T01:02:17.526Z,22.85
2018-01-15T01:04:45.672Z,21.05
2018-01-15T01:24:28.699Z,20.05
2018-01-15T01:26:56.832Z,16.67
2018-01-15T01:29:24.977Z,21.67
2018-01-15T01:31:53.233Z,20.08
2018-01-15T01:34:21.367Z,18.90
2018-01-15T01:36:50.257Z,20.02
2018-01-15T01:39:18.515Z,17.23
2018-01-15T01:41:46.754Z,18.45
2018-01-15T01:44:14.877Z,17.85
2018-01-15T01:46:43.011Z,20.65
2018-01-15T01:49:11.198Z,24.23
2018-01-15T01:51:39.327Z,22.62
2018-01-15T01:54:08.131Z,20.45
2018-01-15T01:56:36.251Z,19.85
2018-01-15T01:59:04.382Z,19.77
2018-01-15T02:01:32.513Z,20.58
2018-01-15T02:04:00.747Z,19.48
2018-01-15T02:06:28.998Z,19.85
2018-01-15T02:08:57.639Z,19.02
2018-01-15T02:11:25.863Z,18.85
2018-01-15T02:13:54.127Z,17.70
2018-01-15T02:16:23.093Z,20.85
2018-01-15T02:18:51.385Z,19.67
2018-01-15T02:21:20.585Z,16.73
2018-01-15T02:23:48.687Z,19.42
2018-01-15T02:26:16.808Z,18.40
2018-01-15T02:28:44.939Z,18.30
2018-01-15T02:31:13.312Z,18.17
2018-01-15T02:33:41.443Z,26.37
2018-01-15T02:36:10.331Z,19.55
2018-01-15T02:38:39.252Z,15.30
2018-01-15T02:41:07.388Z,17.30
2018-01-15T02:43:35.561Z,24.60
2018-01-15T02:46:03.688Z,19.85
2018-01-15T02:48:31.855Z,19.27
2018-01-15T02:50:59.980Z,20.25
2018-01-15T02:53:28.110Z,17.00
2018-01-15T02:55:56.264Z,24.25
2018-01-15T02:58:24.439Z,22.37
2018-01-15T03:00:52.727Z,24.52
2018-01-15T03:03:20.831Z,19.87
2018-01-15T03:05:48.960Z,20.45
2018-01-15T03:08:17.135Z,18.98
2018-01-15T03:10:45.286Z,16.98
2018-01-15T03:13:14.193Z,20.10
2018-01-15T03:15:43.076Z,21.02
2018-01-15T03:18:11.981Z,23.00
2018-01-15T03:20:40.103Z,19.00
2018-01-15T03:23:08.262Z,17.55
2018-01-15T03:25:36.390Z,22.20
2018-01-15T03:28:05.292Z,23.80
2018-01-15T03:30:33.432Z,19.35
2018-01-15T03:33:01.627Z,17.30
2018-01-15T03:35:30.499Z,18.80
2018-01-15T03:37:58.664Z,20.02
2018-01-15T03:40:26.799Z,19.23
2018-01-15T03:42:54.932Z,18.60
2018-01-15T03:45:23.856Z,19.55
2018-01-15T03:47:52.007Z,20.50
2018-01-15T03:50:20.920Z,21.60
2018-01-15T03:52:49.096Z,18.67
2018-01-15T03:55:17.228Z,17.40
2018-01-15T03:57:45.395Z,18.77
2018-01-15T04:00:13.528Z,23.27
2018-01-15T04:02:41.680Z,20.00
2018-01-15T04:05:09.822Z,21.42
2018-01-15T04:07:37.963Z,20.15
2018-01-15T04:10:06.123Z,23.45
2018-01-15T04:12:34.285Z,18.50
2018-01-15T04:15:02.415Z,20.48
2018-01-15T04:17:30.572Z,22.87
2018-01-15T04:19:58.721Z,17.52
2018-01-15T04:22:26.844Z,23.58
2018-01-15T04:24:54.980Z,20.85
2018-01-15T04:27:23.109Z,17.08
2018-01-15T04:29:52.120Z,19.92
2018-01-15T04:32:20.253Z,21.25
2018-01-15T04:34:48.468Z,17.17
2018-01-15T04:37:16.642Z,25.08
2018-01-15T04:39:44.799Z,25.42
2018-01-15T04:42:13.723Z,24.40
2018-01-15T04:44:41.880Z,22.30
2018-01-15T04:47:10.011Z,20.92
2018-01-15T04:49:38.142Z,22.35
2018-01-15T04:52:06.297Z,21.65
2018-01-15T04:54:34.463Z,22.95
2018-01-15T04:57:02.616Z,19.33
2018-01-15T04:59:31.516Z,18.20
2018-01-15T05:02:00.452Z,17.98
2018-01-15T05:04:28.574Z,18.70
2018-01-15T05:06:57.520Z,23.40
2018-01-15T05:09:25.673Z,23.35
2018-01-15T05:11:53.796Z,26.17
2018-01-15T05:14:21.943Z,20.95
2018-01-15T05:16:50.075Z,23.25
2018-01-15T05:19:18.215Z,27.27
2018-01-15T05:21:46.373Z,25.62
2018-01-15T05:24:14.520Z,19.00
2018-01-15T05:26:42.689Z,20.70
2018-01-15T05:29:10.808Z,26.15
2018-01-15T05:31:39.036Z,23.85
2018-01-15T05:34:07.156Z,21.62
2018-01-15T05:36:35.348Z,22.23
2018-01-15T05:39:04.253Z,23.60
2018-01-15T05:41:33.171Z,21.15
2018-01-15T05:44:01.282Z,20.40
2018-01-15T05:46:29.465Z,24.10
2018-01-15T05:48:57.591Z,20.05
2018-01-15T05:51:25.721Z,23.50
2018-01-15T05:53:53.902Z,26.25
2018-01-15T05:56:22.840Z,25.67
2018-01-15T05:58:50.976Z,21.80
2018-01-15T06:01:19.136Z,27.48
2018-01-15T06:03:48.092Z,21.23
2018-01-15T06:06:16.264Z,21.45
2018-01-15T06:08:44.431Z,25.08
2018-01-15T06:11:12.573Z,25.85
2018-01-15T06:13:40.736Z,25.58
2018-01-15T06:16:09.652Z,21.48
2018-01-15T06:18:37.771Z,24.12
2018-01-15T06:21:05.924Z,24.92
2018-01-15T06:23:34.088Z,25.40
2018-01-15T06:26:02.285Z,24.63
2018-01-15T06:28:30.889Z,28.62
2018-01-15T06:30:59.096Z,27.65
2018-01-15T06:33:27.256Z,27.62
2018-01-15T06:35:56.187Z,24.12
2018-01-15T06:38:24.382Z,22.52
2018-01-15T06:40:52.628Z,28.10
2018-01-15T06:43:20.767Z,23.55
2018-01-15T06:45:49.692Z,22.77
2018-01-15T06:48:17.857Z,22.13
2018-01-15T06:50:45.999Z,19.45
2018-01-15T06:53:14.215Z,24.45
2018-01-15T06:55:42.340Z,20.10
2018-01-15T06:58:10.496Z,24.30
2018-01-15T07:00:38.636Z,26.62
2018-01-15T07:03:06.789Z,23.23
2018-01-15T07:05:35.713Z,27.05
2018-01-15T07:08:03.859Z,26.62
2018-01-15T07:10:32.067Z,26.05
2018-01-15T07:13:00.924Z,24.25
2018-01-15T07:15:29.114Z,21.83
2018-01-15T07:17:57.231Z,24.92
2018-01-15T07:20:25.408Z,19.15
2018-01-15T07:22:53.596Z,24.10
2018-01-15T07:25:22.512Z,20.67
2018-01-15T07:27:50.802Z,22.87
2018-01-15T07:30:19.255Z,37.60
2018-01-15T07:32:47.382Z,24.35
2018-01-15T07:35:15.544Z,28.75
2018-01-15T07:37:43.993Z,27.95
2018-01-15T07:40:12.932Z,22.05
2018-01-15T07:42:41.072Z,27.55
2018-01-15T07:45:09.216Z,25.95
2018-01-15T07:47:38.144Z,20.23
2018-01-15T07:50:06.301Z,29.80
2018-01-15T07:52:34.485Z,25.65
2018-01-15T07:55:02.658Z,20.83
2018-01-15T07:57:30.842Z,29.63
2018-01-15T07:59:59.935Z,21.67
2018-01-15T08:02:28.094Z,26.12
2018-01-15T08:04:56.995Z,24.52
2018-01-15T08:07:25.154Z,24.67
2018-01-15T08:09:54.053Z,22.83
2018-01-15T08:12:22.209Z,21.92
2018-01-15T08:14:51.197Z,24.10
2018-01-15T08:17:19.715Z,29.00
2018-01-15T08:19:47.878Z,24.40
2018-01-15T08:22:16.080Z,36.50
2018-01-15T08:24:44.216Z,27.45
2018-01-15T08:27:13.179Z,30.55
2018-01-15T08:29:41.345Z,25.80
2018-01-15T08:32:09.491Z,23.60
2018-01-15T08:34:37.719Z,25.58
2018-01-15T08:37:05.819Z,26.95
2018-01-15T08:39:33.998Z,25.12
2018-01-15T08:42:02.096Z,22.37
2018-01-15T08:44:30.308Z,24.33
2018-01-15T08:46:58.420Z,31.10
2018-01-15T08:49:26.567Z,27.00
2018-01-15T08:51:55.717Z,29.52
2018-01-15T08:54:23.880Z,27.08
2018-01-15T08:56:52.036Z,25.35
2018-01-15T08:59:20.180Z,28.67
2018-01-15T09:01:49.101Z,24.60
2018-01-15T09:04:17.255Z,23.98
2018-01-15T09:06:46.166Z,21.08
2018-01-15T09:09:15.219Z,22.83
2018-01-15T09:11:43.417Z,24.12
2018-01-15T09:14:12.302Z,22.40
2018-01-15T09:16:41.321Z,22.67
2018-01-15T09:19:09.447Z,25.80
2018-01-15T09:21:37.620Z,25.90
2018-01-15T09:24:05.754Z,22.10
2018-01-15T09:26:33.959Z,30.05
2018-01-15T09:29:02.093Z,22.15
2018-01-15T09:31:30.220Z,28.12
2018-01-15T09:33:58.392Z,20.95
2018-01-15T09:36:26.567Z,26.45
2018-01-15T09:38:54.752Z,21.77
2018-01-15T09:41:23.648Z,24.80
2018-01-15T09:43:52.568Z,30.73
2018-01-15T09:46:20.743Z,21.52
2018-01-15T09:48:48.893Z,28.62
2018-01-15T09:51:17.808Z,25.08
2018-01-15T09:53:45.928Z,23.62
2018-01-15T09:56:14.073Z,27.75
2018-01-15T09:58:42.208Z,21.35
2018-01-15T10:01:11.122Z,23.05
2018-01-15T10:03:39.322Z,22.10
2018-01-15T10:06:07.466Z,22.75
2018-01-15T10:08:35.642Z,25.00
2018-01-15T10:11:03.787Z,25.10
2018-01-15T10:13:31.921Z,26.73
2018-01-15T10:16:00.350Z,21.80
2018-01-15T10:18:29.295Z,27.92
2018-01-15T10:20:57.415Z,24.75
2018-01-15T10:23:26.428Z,20.02
2018-01-15T10:25:54.541Z,21.98
2018-01-15T10:28:22.776Z,22.10
2018-01-15T10:30:51.667Z,20.33
2018-01-15T10:33:19.822Z,20.62
2018-01-15T10:35:48.730Z,26.15
2018-01-15T10:38:16.900Z,22.52
2018-01-15T10:40:45.122Z,24.02
2018-01-15T10:43:13.293Z,23.10
2018-01-15T10:45:41.487Z,27.95
2018-01-15T10:48:09.627Z,19.52
2018-01-15T10:50:37.887Z,24.12
2018-01-15T10:53:06.266Z,23.08
2018-01-15T10:55:34.398Z,20.15
2018-01-15T10:58:02.580Z,25.00
2018-01-15T11:00:37.203Z,26.10
2018-01-15T11:03:06.104Z,21.52
2018-01-15T11:05:34.265Z,20.02
2018-01-15T11:08:03.164Z,29.20
2018-01-15T11:10:32.183Z,19.98
2018-01-15T11:13:00.305Z,22.98
2018-01-15T11:15:28.501Z,33.25
2018-01-15T11:17:57.440Z,19.12
2018-01-15T11:20:25.631Z,28.98
2018-01-15T11:22:53.804Z,26.23
2018-01-15T11:25:21.928Z,25.10
2018-01-15T11:27:50.888Z,21.87
2018-01-15T11:30:19.083Z,22.98
2018-01-15T11:32:47.984Z,24.70
2018-01-15T11:35:16.884Z,24.92
2018-01-15T11:37:45.381Z,35.13
2018-01-15T11:40:13.539Z,20.92
2018-01-15T11:42:42.542Z,21.52
2018-01-15T11:45:10.820Z,24.83
2018-01-15T11:47:38.943Z,27.10
2018-01-15T11:50:07.168Z,25.42
2018-01-15T11:52:35.290Z,28.65
2018-01-15T11:55:03.517Z,20.00
2018-01-15T11:57:31.693Z,22.37
2018-01-15T11:59:59.826Z,21.23
2018-01-15T12:02:28.018Z,27.23
2018-01-15T12:04:57.034Z,22.00
2018-01-15T12:07:25.167Z,28.87
2018-01-15T12:09:53.348Z,27.15
2018-01-15T12:12:22.272Z,29.30
2018-01-15T12:14:50.465Z,26.77
2018-01-15T12:17:18.576Z,23.77
2018-01-15T12:19:46.721Z,25.08
2018-01-15T12:22:14.884Z,22.62
2018-01-15T12:24:43.040Z,27.30
2018-01-15T12:27:11.167Z,26.15
2018-01-15T12:29:39.316Z,22.23
2018-01-15T12:32:07.453Z,33.13
2018-01-15T12:34:35.647Z,20.60
2018-01-15T12:37:03.765Z,20.05
2018-01-15T12:39:31.952Z,27.83
2018-01-15T12:42:00.896Z,18.65
2018-01-15T12:44:29.032Z,20.17
2018-01-15T12:46:57.991Z,15.48
2018-01-15T12:49:26.156Z,14.57
2018-01-15T12:51:54.375Z,15.13
2018-01-15T12:54:23.340Z,9.60
2018-01-15T12:56:51.456Z,7.22
2018-01-15T12:59:19.632Z,12.75
2018-01-15T13:01:47.781Z,9.70
2018-01-15T13:04:15.936Z,7.45
2018-01-15T13:06:55.890Z,10.20
2018-01-15T13:09:24.040Z,8.57
2018-01-15T13:11:52.183Z,8.27
2018-01-15T13:14:20.308Z,13.27
2018-01-15T13:16:48.444Z,7.15
2018-01-15T13:19:16.619Z,9.85
2018-01-15T13:21:44.777Z,9.13
2018-01-15T13:24:12.944Z,9.38
2018-01-15T13:26:41.085Z,8.93
2018-01-15T13:29:10.317Z,8.45
2018-01-15T13:31:39.238Z,10.20
2018-01-15T13:34:07.401Z,6.65
2018-01-15T13:36:35.556Z,8.52
2018-01-15T13:39:03.668Z,6.53
2018-01-15T13:41:31.845Z,7.03
2018-01-15T13:43:59.976Z,8.15
2018-01-15T13:46:28.123Z,10.55
2018-01-15T13:48:57.011Z,7.18
2018-01-15T13:51:25.187Z,10.00
2018-01-15T13:53:53.366Z,9.02
2018-01-15T13:56:22.341Z,8.88
2018-01-15T13:58:50.458Z,10.52
2018-01-15T14:01:18.704Z,11.38
2018-01-15T14:03:46.842Z,13.23
2018-01-15T14:06:15.036Z,11.05
2018-01-15T14:08:43.240Z,7.85
2018-01-15T14:11:12.174Z,10.65
2018-01-15T14:13:40.309Z,10.75
2018-01-15T14:16:08.448Z,11.38
2018-01-15T14:18:36.621Z,10.65
2018-01-15T14:21:04.770Z,8.65
2018-01-15T14:23:32.962Z,10.02
2018-01-15T14:26:01.165Z,10.27
2018-01-15T14:28:30.112Z,10.20
2018-01-15T14:30:58.276Z,7.80
2018-01-15T14:33:26.430Z,9.98
2018-01-15T14:35:54.628Z,9.48
2018-01-15T14:38:22.801Z,7.90
2018-01-15T14:40:51.780Z,9.88
2018-01-15T14:43:20.000Z,8.85
2018-01-15T14:45:48.229Z,7.68
2018-01-15T14:48:16.382Z,8.35
2018-01-15T14:50:45.305Z,8.25
2018-01-15T14:53:13.486Z,8.38
2018-01-15T14:55:41.664Z,7.07
2018-01-15T14:58:09.875Z,7.50
2018-01-15T15:00:38.054Z,6.93
2018-01-15T15:03:06.210Z,6.05
2018-01-15T15:05:34.318Z,9.07
2018-01-15T15:08:03.248Z,8.07
2018-01-15T15:10:31.360Z,8.00
2018-01-15T15:12:59.601Z,10.00
2018-01-15T15:15:27.720Z,6.05
2018-01-15T15:17:57.555Z,6.25
2018-01-15T15:20:25.744Z,7.10
2018-01-15T15:22:53.920Z,10.68
2018-01-15T15:25:22.096Z,8.98
2018-01-15T15:27:50.291Z,6.65
2018-01-15T15:30:18.469Z,6.90
2018-01-15T15:32:46.612Z,5.22
2018-01-15T15:35:14.781Z,6.25
2018-01-15T15:37:42.960Z,5.45
2018-01-15T15:40:11.113Z,5.47
2018-01-15T15:42:40.123Z,5.32
2018-01-15T15:45:08.994Z,5.03
2018-01-15T15:47:37.921Z,4.45
2018-01-15T15:50:06.182Z,5.47
2018-01-15T15:52:34.336Z,3.95
2018-01-15T15:55:03.304Z,7.43
2018-01-15T15:57:31.522Z,4.32
2018-01-15T16:00:00.491Z,3.78
2018-01-15T16:02:29.435Z,4.30
2018-01-15T16:04:57.600Z,3.92
2018-01-15T16:07:25.733Z,2.97
2018-01-15T16:09:54.001Z,3.55
2018-01-15T16:12:22.165Z,2.97
2018-01-15T16:14:51.172Z,5.62
2018-01-15T16:17:20.090Z,2.62
2018-01-15T16:19:48.260Z,3.50
2018-01-15T16:22:28.453Z,3.12
2018-01-15T16:24:56.597Z,3.33
2018-01-15T16:27:24.781Z,3.25
2018-01-15T16:29:53.006Z,2.85
2018-01-15T16:32:21.940Z,2.50
2018-01-15T16:34:50.154Z,3.15
2018-01-15T16:37:18.355Z,3.17
2018-01-15T16:39:46.516Z,3.08
2018-01-15T16:42:15.452Z,3.30
2018-01-15T16:44:44.018Z,2.12
2018-01-15T16:47:12.953Z,2.22
2018-01-15T16:49:41.104Z,2.55
2018-01-15T16:52:09.236Z,2.87
2018-01-15T16:54:37.414Z,2.55
2018-01-15T16:57:05.575Z,2.50
2018-01-15T16:59:33.763Z,2.50
2018-01-15T17:02:01.974Z,3.05
2018-01-15T17:04:30.104Z,2.40
2018-01-15T17:06:58.320Z,2.80
2018-01-15T17:09:26.451Z,2.10
2018-01-15T17:11:54.583Z,4.65
2018-01-15T17:14:22.727Z,2.53
2018-01-15T17:16:50.847Z,3.40
2018-01-15T17:19:19.084Z,2.83
2018-01-15T17:21:47.212Z,2.65
2018-01-15T17:24:15.352Z,2.25
2018-01-15T17:26:43.524Z,2.10
2018-01-15T17:29:11.788Z,1.92
2018-01-15T17:31:39.921Z,3.70
2018-01-15T17:34:08.129Z,3.53
2018-01-15T17:36:37.365Z,2.10
2018-01-15T17:39:05.468Z,3.85
2018-01-15T17:41:33.583Z,2.28
2018-01-15T17:44:01.712Z,1.77
2018-01-15T17:46:29.861Z,1.77
2018-01-15T17:48:58.077Z,2.67
2018-01-15T17:51:26.956Z,5.87
2018-01-15T17:53:55.341Z,1.48
2018-01-15T17:56:23.452Z,4.80
2018-01-15T17:58:51.582Z,3.70
2018-01-15T18:01:19.748Z,1.90
2018-01-15T18:03:47.967Z,1.62
2018-01-15T18:06:16.396Z,4.57
2018-01-15T18:08:44.524Z,2.35
2018-01-15T18:11:12.651Z,2.65
2018-01-15T18:13:40.850Z,1.35
2018-01-15T18:16:09.762Z,1.65
2018-01-15T18:18:37.944Z,2.42
2018-01-15T18:21:06.051Z,1.70
2018-01-15T18:23:34.212Z,1.55
2018-01-15T18:26:02.328Z,2.25
2018-01-15T18:28:31.229Z,1.30
2018-01-15T18:31:00.172Z,2.03
2018-01-15T18:33:28.327Z,4.28
2018-01-15T18:35:56.467Z,1.25
2018-01-15T18:38:25.376Z,1.50
2018-01-15T18:40:53.549Z,1.10
2018-01-15T18:43:21.724Z,2.65
2018-01-15T18:45:49.892Z,1.37
2018-01-15T18:48:18.031Z,2.97
2018-01-15T18:50:46.145Z,1.27
2018-01-15T18:53:14.420Z,1.05
2018-01-15T18:55:43.286Z,0.93
2018-01-15T18:58:12.217Z,1.12
2018-01-15T19:00:40.383Z,1.00
2018-01-15T19:03:08.500Z,1.87
2018-01-15T19:05:36.725Z,1.23
2018-01-15T19:08:05.588Z,1.08
2018-01-15T19:10:34.508Z,1.48
2018-01-15T19:13:02.611Z,0.60
2018-01-15T19:15:31.067Z,0.82
2018-01-15T19:17:59.236Z,0.90
2018-01-15T19:20:28.125Z,2.30
2018-01-15T19:22:56.236Z,1.37
2018-01-15T19:25:24.372Z,1.15
2018-01-15T19:27:52.497Z,1.77
2018-01-15T19:30:20.618Z,1.08
2018-01-15T19:32:48.737Z,0.80
2018-01-15T19:35:22.568Z,1.20
2018-01-15T19:37:50.701Z,1.55
2018-01-15T19:40:18.818Z,1.87
2018-01-15T19:42:46.942Z,0.80
2018-01-15T19:45:20.853Z,0.80
2018-01-15T19:47:54.588Z,0.90
2018-01-15T19:50:28.320Z,0.93
2018-01-15T19:53:02.179Z,0.82
2018-01-15T19:55:36.160Z,1.00
2018-01-15T19:58:09.882Z,1.15
2018-01-15T20:00:43.613Z,1.60
2018-01-15T20:03:18.209Z,0.90
2018-01-15T20:09:03.756Z,0.70
2018-01-15T20:11:31.888Z,1.73
2018-01-15T20:14:00.727Z,0.60
2018-01-15T20:16:29.711Z,0.70
2018-01-15T20:18:57.848Z,1.23
2018-01-15T20:21:26.048Z,0.80
2018-01-15T20:23:54.208Z,1.20
2018-01-15T20:26:22.336Z,1.15
2018-01-15T20:28:50.475Z,0.90
2018-01-15T20:31:18.948Z,0.93
2018-01-15T20:33:47.067Z,1.65
2018-01-15T20:36:15.255Z,0.80
2018-01-15T20:38:43.367Z,1.12
2018-01-15T20:41:11.508Z,0.60
2018-01-15T20:43:39.636Z,0.60
2018-01-15T20:46:08.548Z,1.10
2018-01-15T20:48:36.705Z,1.30
2018-01-15T20:51:05.634Z,1.27
2018-01-15T20:53:33.799Z,1.00
2018-01-15T20:56:02.166Z,0.85
2018-01-15T20:58:30.305Z,1.30
2018-01-15T21:00:58.428Z,0.65
2018-01-15T21:03:26.574Z,0.65
2018-01-15T21:05:55.464Z,1.05
2018-01-15T21:08:24.437Z,0.75
2018-01-15T21:10:52.596Z,1.05
2018-01-15T21:13:20.797Z,1.00
2018-01-15T21:15:49.717Z,0.80
2018-01-15T21:18:17.843Z,0.95
2018-01-15T21:20:46.169Z,0.60
2018-01-15T21:23:14.716Z,0.70
2018-01-15T21:25:43.641Z,3.55
2018-01-15T21:28:11.773Z,0.70
2018-01-15T21:30:39.924Z,0.80
2018-01-15T21:33:08.056Z,0.98
2018-01-15T21:35:36.334Z,1.08
2018-01-15T21:38:05.376Z,0.90
2018-01-15T21:40:34.488Z,2.20
2018-01-15T21:43:02.625Z,0.70
2018-01-15T21:45:30.752Z,0.80
2018-01-15T21:47:59.729Z,1.30
2018-01-15T21:50:28.692Z,0.60
2018-01-15T21:52:56.906Z,1.00
2018-01-15T21:55:25.040Z,1.58
2018-01-15T21:57:53.155Z,0.90
2018-01-15T22:00:22.058Z,0.88
2018-01-15T22:02:50.947Z,2.08
2018-01-15T22:05:20.096Z,1.35
2018-01-15T22:07:48.200Z,2.25
2018-01-15T22:10:16.349Z,1.85
2018-01-15T22:12:44.484Z,1.35
2018-01-15T22:15:12.617Z,1.55
2018-01-15T22:17:40.756Z,1.80
2018-01-15T22:20:08.904Z,3.45
2018-01-15T22:22:37.048Z,4.05
2018-01-15T22:25:05.935Z,2.03
2018-01-15T22:27:34.864Z,2.17
2018-01-15T22:30:03.030Z,2.60
2018-01-15T22:32:31.147Z,2.83
2018-01-15T22:34:59.280Z,2.50
2018-01-15T22:37:27.424Z,1.50
2018-01-15T22:39:57.136Z,1.85
2018-01-15T22:42:26.110Z,3.40
2018-01-15T22:44:54.223Z,1.12
2018-01-15T22:47:22.583Z,3.22
2018-01-15T22:49:51.464Z,3.80
2018-01-15T22:52:20.439Z,1.62
2018-01-15T22:54:48.582Z,2.03
2018-01-15T22:57:16.714Z,2.92
2018-01-15T22:59:45.672Z,2.00
2018-01-15T23:02:13.798Z,0.90
2018-01-15T23:04:42.293Z,1.73
2018-01-15T23:07:10.433Z,1.30
2018-01-15T23:09:39.344Z,1.55
2018-01-15T23:12:07.496Z,1.60
2018-01-15T23:14:36.376Z,1.60
2018-01-15T23:17:04.493Z,1.42
2018-01-15T23:19:32.604Z,3.12
2018-01-15T23:22:00.744Z,2.45
2018-01-15T23:24:28.853Z,3.12
2018-01-15T23:26:56.968Z,1.27
2018-01-15T23:29:25.091Z,2.47
2018-01-15T23:31:53.213Z,2.90
2018-01-15T23:34:21.362Z,1.33
2018-01-15T23:36:49.486Z,2.25
2018-01-15T23:39:17.636Z,1.05
2018-01-15T23:41:45.781Z,1.58
2018-01-15T23:44:13.913Z,1.42
2018-01-15T23:46:42.036Z,1.52
2018-01-15T23:49:10.927Z,1.48
2018-01-15T23:51:39.827Z,3.80
2018-01-15T23:54:08.738Z,1.95
2018-01-15T23:56:37.122Z,1.37
2018-01-15T23:59:05.236Z,1.77
